createdAt,value
2023-01-18T00:01:09.967Z,3.07
2023-01-18T00:03:39.642Z,2.90
2023-01-18T00:06:10.381Z,2.97
2023-01-18T00:08:40.104Z,3.10
2023-01-18T00:11:10.310Z,3.03
2023-01-18T00:13:38.603Z,2.87
2023-01-18T00:16:09.982Z,2.80
2023-01-18T00:18:38.137Z,3.30
2023-01-18T00:21:08.286Z,3.80
2023-01-18T00:23:36.812Z,2.97
2023-01-18T00:26:07.350Z,3.30
2023-01-18T00:28:35.634Z,3.17
2023-01-18T00:31:12.386Z,3.40
2023-01-18T00:33:43.049Z,3.60
2023-01-18T00:36:11.507Z,2.90
2023-01-18T00:38:39.566Z,3.30
2023-01-18T00:41:07.836Z,3.43
2023-01-18T00:43:41.087Z,3.33
2023-01-18T00:46:12.087Z,3.20
2023-01-18T00:48:41.373Z,3.33
2023-01-18T00:51:10.241Z,3.60
2023-01-18T00:53:39.118Z,3.23
2023-01-18T00:56:08.811Z,3.20
2023-01-18T00:58:37.520Z,3.43
2023-01-18T01:01:06.703Z,3.13
2023-01-18T01:03:50.498Z,3.23
2023-01-18T01:06:38.220Z,3.47
2023-01-18T01:09:06.242Z,3.60
2023-01-18T01:11:34.264Z,3.50
2023-01-18T01:14:19.590Z,3.23
2023-01-18T01:17:04.942Z,3.83
2023-01-18T01:19:51.971Z,3.73
2023-01-18T01:22:37.746Z,3.37
2023-01-18T01:25:24.093Z,3.73
2023-01-18T01:27:53.485Z,3.40
2023-01-18T01:30:21.510Z,3.73
2023-01-18T01:32:49.546Z,4.13
2023-01-18T01:35:19.016Z,3.87
2023-01-18T01:37:47.055Z,4.20
2023-01-18T01:40:15.145Z,3.73
2023-01-18T01:42:43.170Z,4.10
2023-01-18T01:45:11.883Z,3.90
2023-01-18T01:47:42.563Z,4.07
2023-01-18T01:50:18.623Z,4.17
2023-01-18T01:52:48.797Z,3.90
2023-01-18T01:55:22.761Z,4.40
2023-01-18T01:57:56.155Z,4.40
2023-01-18T02:00:25.502Z,4.50
2023-01-18T02:02:56.217Z,4.33
2023-01-18T02:05:25.236Z,4.23
2023-01-18T02:07:55.445Z,4.53
2023-01-18T02:10:23.620Z,5.00
2023-01-18T02:12:54.699Z,4.67
2023-01-18T02:15:24.072Z,4.63
2023-01-18T02:18:12.959Z,4.53
2023-01-18T02:21:17.735Z,5.20
2023-01-18T02:24:37.633Z,5.37
2023-01-18T02:27:10.409Z,5.37
2023-01-18T02:30:11.752Z,5.13
2023-01-18T02:32:56.814Z,5.07
2023-01-18T02:35:35.014Z,5.30
2023-01-18T02:38:10.465Z,5.43
2023-01-18T02:40:50.189Z,6.13
2023-01-18T02:43:39.390Z,5.10
2023-01-18T02:46:34.106Z,5.73
2023-01-18T02:49:06.099Z,5.30
2023-01-18T02:51:34.345Z,6.20
2023-01-18T02:54:04.050Z,6.53
2023-01-18T02:56:36.082Z,5.93
2023-01-18T02:59:08.700Z,6.20
2023-01-18T03:01:42.428Z,5.83
2023-01-18T03:04:15.366Z,6.17
2023-01-18T03:06:48.190Z,5.90
2023-01-18T03:09:18.719Z,6.33
2023-01-18T03:11:57.628Z,6.13
2023-01-18T03:14:38.326Z,6.57
2023-01-18T03:17:17.338Z,6.83
2023-01-18T03:20:06.545Z,6.33
2023-01-18T03:22:56.835Z,7.10
2023-01-18T03:25:29.015Z,6.60
2023-01-18T03:28:17.704Z,7.27
2023-01-18T03:31:05.553Z,6.83
2023-01-18T03:33:47.041Z,7.00
2023-01-18T03:36:21.556Z,7.30
2023-01-18T03:38:54.349Z,7.20
2023-01-18T03:41:25.471Z,6.43
2023-01-18T03:43:58.146Z,6.90
2023-01-18T03:46:29.931Z,6.57
2023-01-18T03:48:59.753Z,6.63
2023-01-18T03:51:39.242Z,6.83
2023-01-18T03:54:15.307Z,6.67
2023-01-18T03:56:49.679Z,8.03
2023-01-18T03:59:18.070Z,7.83
2023-01-18T04:01:48.249Z,7.33
2023-01-18T04:04:17.696Z,7.13
2023-01-18T04:06:45.839Z,7.73
2023-01-18T04:09:13.914Z,7.83
2023-01-18T04:11:41.987Z,7.63
2023-01-18T04:14:10.127Z,7.77
2023-01-18T04:16:38.170Z,8.43
2023-01-18T04:19:07.429Z,8.03
2023-01-18T04:21:38.478Z,8.20
2023-01-18T04:24:07.195Z,8.27
2023-01-18T04:26:35.287Z,8.10
2023-01-18T04:29:03.539Z,8.10
2023-01-18T04:31:31.646Z,8.63
2023-01-18T04:33:59.724Z,7.80
2023-01-18T04:36:28.951Z,8.53
2023-01-18T04:38:58.357Z,7.43
2023-01-18T04:41:26.416Z,7.40
2023-01-18T04:43:54.450Z,8.87
2023-01-18T04:46:22.539Z,8.03
2023-01-18T04:48:52.436Z,8.70
2023-01-18T04:51:20.982Z,8.40
2023-01-18T04:53:49.100Z,8.47
2023-01-18T04:56:18.854Z,8.50
2023-01-18T04:58:47.340Z,7.90
2023-01-18T05:01:17.029Z,8.27
2023-01-18T05:03:45.487Z,8.43
2023-01-18T05:06:15.471Z,8.40
2023-01-18T05:08:44.088Z,8.37
2023-01-18T05:11:13.964Z,8.87
2023-01-18T05:13:44.220Z,8.17
2023-01-18T05:16:16.306Z,8.43
2023-01-18T05:18:44.876Z,8.20
2023-01-18T05:21:12.959Z,9.63
2023-01-18T05:23:41.407Z,9.67
2023-01-18T05:26:15.335Z,8.80
2023-01-18T05:28:45.905Z,9.40
2023-01-18T05:31:14.593Z,8.80
2023-01-18T05:33:42.965Z,8.53
2023-01-18T05:36:11.715Z,8.20
2023-01-18T05:38:39.743Z,8.63
2023-01-18T05:41:07.873Z,8.33
2023-01-18T05:43:36.254Z,9.00
2023-01-18T05:46:06.139Z,8.17
2023-01-18T05:48:34.288Z,8.97
2023-01-18T05:51:07.777Z,8.33
2023-01-18T05:53:36.181Z,8.23
2023-01-18T05:56:06.238Z,8.40
2023-01-18T05:58:34.686Z,9.13
2023-01-18T06:01:02.842Z,8.20
2023-01-18T06:03:32.238Z,8.17
2023-01-18T06:06:00.267Z,9.00
2023-01-18T06:08:28.680Z,9.23
2023-01-18T06:10:58.174Z,8.97
2023-01-18T06:13:28.013Z,9.00
2023-01-18T06:15:56.781Z,8.43
2023-01-18T06:18:25.825Z,9.17
2023-01-18T06:20:56.041Z,9.60
2023-01-18T06:23:24.140Z,9.27
2023-01-18T06:25:52.833Z,9.87
2023-01-18T06:28:22.570Z,8.73
2023-01-18T06:30:52.991Z,9.13
2023-01-18T06:33:21.123Z,10.43
2023-01-18T06:35:49.144Z,9.50
2023-01-18T06:38:18.841Z,9.83
2023-01-18T06:40:46.928Z,10.17
2023-01-18T06:43:16.041Z,9.90
2023-01-18T06:45:44.153Z,9.90
2023-01-18T06:48:12.278Z,10.83
2023-01-18T06:50:40.309Z,9.60
2023-01-18T06:53:08.339Z,9.83
2023-01-18T06:55:37.705Z,10.73
2023-01-18T06:58:05.843Z,10.40
2023-01-18T07:00:34.253Z,10.43
2023-01-18T07:03:02.354Z,10.53
2023-01-18T07:05:31.016Z,9.90
2023-01-18T07:07:59.004Z,10.50
2023-01-18T07:10:27.172Z,10.30
2023-01-18T07:12:56.884Z,10.10
2023-01-18T07:15:25.064Z,11.37
2023-01-18T07:17:53.115Z,11.47
2023-01-18T07:20:21.188Z,10.50
2023-01-18T07:22:52.774Z,10.90
2023-01-18T07:25:21.027Z,10.80
2023-01-18T07:27:49.970Z,11.63
2023-01-18T07:30:20.333Z,11.50
2023-01-18T07:32:50.340Z,11.20
2023-01-18T07:35:20.131Z,11.00
2023-01-18T07:37:50.517Z,11.23
2023-01-18T07:40:20.899Z,11.63
2023-01-18T07:42:49.416Z,10.90
2023-01-18T07:45:18.947Z,11.07
2023-01-18T07:47:47.235Z,11.60
2023-01-18T07:50:16.106Z,11.87
2023-01-18T07:52:44.174Z,11.50
2023-01-18T07:55:12.248Z,11.07
2023-01-18T07:57:40.304Z,11.77
2023-01-18T08:00:10.813Z,11.30
2023-01-18T08:02:43.367Z,11.40
2023-01-18T08:05:11.709Z,11.27
2023-01-18T08:07:40.029Z,11.53
2023-01-18T08:10:08.505Z,11.67
2023-01-18T08:12:36.653Z,11.33
2023-01-18T08:15:05.648Z,12.10
2023-01-18T08:17:47.426Z,13.27
2023-01-18T08:20:16.056Z,11.77
2023-01-18T08:22:44.120Z,11.13
2023-01-18T08:25:12.260Z,11.30
2023-01-18T08:27:40.378Z,11.10
2023-01-18T08:30:10.164Z,11.07
2023-01-18T08:32:38.243Z,10.17
2023-01-18T08:35:08.902Z,11.37
2023-01-18T08:37:36.965Z,11.17
2023-01-18T08:40:05.736Z,11.87
2023-01-18T08:42:33.765Z,11.13
2023-01-18T08:45:01.820Z,10.43
2023-01-18T08:47:29.963Z,10.87
2023-01-18T08:49:59.108Z,11.17
2023-01-18T08:52:54.959Z,11.37
2023-01-18T08:55:23.824Z,10.87
2023-01-18T08:57:55.153Z,10.80
2023-01-18T09:00:26.759Z,10.60
2023-01-18T09:02:55.465Z,11.90
2023-01-18T09:05:24.750Z,11.00
2023-01-18T09:07:56.049Z,11.80
2023-01-18T09:10:24.502Z,10.53
2023-01-18T09:12:53.747Z,10.63
2023-01-18T09:15:22.046Z,11.23
2023-01-18T09:17:50.134Z,10.70
2023-01-18T09:20:19.121Z,10.83
2023-01-18T09:22:48.745Z,10.33
2023-01-18T09:25:18.914Z,11.00
2023-01-18T09:27:47.644Z,10.57
2023-01-18T09:30:17.116Z,10.57
2023-01-18T09:32:45.188Z,9.93
2023-01-18T09:35:18.006Z,9.77
2023-01-18T09:37:46.425Z,10.03
2023-01-18T09:40:22.781Z,9.20
2023-01-18T09:42:52.800Z,9.70
2023-01-18T09:45:29.923Z,9.63
2023-01-18T09:48:03.023Z,8.80
2023-01-18T09:50:32.958Z,8.67
2023-01-18T09:53:11.261Z,8.97
2023-01-18T09:55:51.751Z,8.40
2023-01-18T09:58:37.853Z,8.40
2023-01-18T10:01:09.515Z,8.53
2023-01-18T10:03:48.753Z,8.10
2023-01-18T10:06:21.607Z,7.70
2023-01-18T10:08:55.801Z,7.80
2023-01-18T10:11:31.436Z,7.40
2023-01-18T10:14:09.224Z,7.97
2023-01-18T10:16:38.848Z,7.70
2023-01-18T10:19:16.347Z,6.43
2023-01-18T10:21:53.883Z,7.63
2023-01-18T10:24:32.735Z,6.97
2023-01-18T10:27:14.361Z,6.72
2023-01-18T10:29:58.491Z,7.03
2023-01-18T10:32:28.319Z,6.70
2023-01-18T10:34:56.390Z,6.97
2023-01-18T10:37:33.479Z,7.38
2023-01-18T10:40:03.215Z,6.93
2023-01-18T10:42:40.938Z,6.93
2023-01-18T10:45:17.453Z,7.10
2023-01-18T10:47:45.545Z,6.32
2023-01-18T10:50:15.091Z,6.90
2023-01-18T10:52:43.131Z,7.10
2023-01-18T10:55:16.319Z,6.65
2023-01-18T10:57:50.036Z,6.80
2023-01-18T11:00:23.764Z,6.88
2023-01-18T11:02:54.159Z,6.78
2023-01-18T11:05:28.903Z,6.03
2023-01-18T11:08:14.556Z,5.97
2023-01-18T11:10:43.844Z,5.85
2023-01-18T11:13:27.235Z,6.38
2023-01-18T11:16:06.102Z,6.05
2023-01-18T11:18:34.214Z,6.30
2023-01-18T11:21:02.936Z,6.30
2023-01-18T11:23:35.699Z,5.90
2023-01-18T11:26:09.231Z,5.45
2023-01-18T11:28:45.782Z,5.80
2023-01-18T11:31:15.511Z,5.43
2023-01-18T11:33:51.768Z,5.30
2023-01-18T11:36:21.246Z,5.60
2023-01-18T11:38:49.705Z,5.57
2023-01-18T11:41:20.722Z,5.68
2023-01-18T11:44:01.056Z,5.82
2023-01-18T11:46:40.191Z,4.78
2023-01-18T11:49:17.496Z,5.05
2023-01-18T11:51:51.187Z,4.95
2023-01-18T11:54:29.041Z,5.07
2023-01-18T11:57:02.335Z,4.95
2023-01-18T11:59:34.885Z,4.60
2023-01-18T12:02:39.922Z,4.97
2023-01-18T12:05:37.868Z,5.03
2023-01-18T12:08:29.453Z,4.57
2023-01-18T12:11:17.776Z,4.82
2023-01-18T12:13:59.428Z,4.80
2023-01-18T12:16:49.073Z,4.60
2023-01-18T12:19:34.528Z,4.78
2023-01-18T12:22:26.787Z,4.32
2023-01-18T12:25:06.675Z,4.82
2023-01-18T12:27:43.670Z,3.95
2023-01-18T12:30:29.160Z,4.43
2023-01-18T12:33:13.139Z,4.60
2023-01-18T12:36:07.425Z,3.92
2023-01-18T12:38:36.857Z,3.88
2023-01-18T12:41:34.546Z,4.20
2023-01-18T12:45:00.880Z,4.55
2023-01-18T12:47:36.113Z,4.30
2023-01-18T12:50:13.908Z,4.40
2023-01-18T12:52:47.287Z,3.95
2023-01-18T12:55:21.374Z,4.28
2023-01-18T12:57:52.636Z,4.03
2023-01-18T13:00:26.073Z,4.15
2023-01-18T13:02:57.739Z,4.38
2023-01-18T13:05:35.318Z,4.30
2023-01-18T13:08:09.183Z,4.55
2023-01-18T13:10:38.573Z,4.30
2023-01-18T13:13:07.522Z,4.45
2023-01-18T13:15:43.480Z,4.20
2023-01-18T13:18:17.915Z,3.95
2023-01-18T13:20:58.618Z,4.65
2023-01-18T13:23:37.865Z,4.68
2023-01-18T13:26:17.861Z,4.47
2023-01-18T13:28:46.377Z,4.60
2023-01-18T13:31:14.944Z,4.57
2023-01-18T13:33:45.590Z,4.80
2023-01-18T13:36:19.761Z,4.60
2023-01-18T13:38:53.031Z,4.20
2023-01-18T13:41:24.759Z,4.28
2023-01-18T13:44:05.000Z,4.03
2023-01-18T13:46:36.504Z,4.25
2023-01-18T13:49:36.586Z,3.85
2023-01-18T13:52:30.424Z,4.72
2023-01-18T13:55:04.151Z,4.50
2023-01-18T13:57:34.629Z,4.60
2023-01-18T14:00:03.456Z,4.10
2023-01-18T14:02:41.988Z,4.20
2023-01-18T14:05:25.328Z,3.88
2023-01-18T14:08:00.143Z,4.13
2023-01-18T14:10:31.815Z,4.15
2023-01-18T14:13:02.769Z,4.00
2023-01-18T14:15:47.611Z,4.10
2023-01-18T14:18:21.763Z,4.00
2023-01-18T14:21:22.251Z,4.80
2023-01-18T14:24:15.054Z,4.35
2023-01-18T14:26:44.711Z,4.53
2023-01-18T14:29:17.475Z,4.63
2023-01-18T14:31:49.841Z,4.68
2023-01-18T14:34:37.997Z,4.13
2023-01-18T14:37:26.261Z,4.07
2023-01-18T14:40:07.965Z,4.50
2023-01-18T14:42:39.642Z,4.35
2023-01-18T14:45:08.947Z,4.38
2023-01-18T14:47:39.274Z,4.50
2023-01-18T14:50:17.327Z,4.20
2023-01-18T14:52:45.463Z,5.50
2023-01-18T14:55:27.576Z,6.27
2023-01-18T14:58:12.342Z,5.27
2023-01-18T15:00:47.645Z,5.03
2023-01-18T15:03:23.811Z,4.60
2023-01-18T15:05:58.589Z,5.20
2023-01-18T15:08:28.595Z,4.80
2023-01-18T15:10:59.258Z,5.07
2023-01-18T15:13:30.607Z,4.90
2023-01-18T15:16:01.347Z,4.73
2023-01-18T15:18:30.923Z,5.10
2023-01-18T15:21:01.974Z,5.53
2023-01-18T15:23:31.275Z,5.10
2023-01-18T15:26:00.831Z,4.60
2023-01-18T15:28:33.872Z,4.23
2023-01-18T15:31:07.541Z,4.83
2023-01-18T15:33:39.510Z,3.87
2023-01-18T15:36:09.757Z,4.73
2023-01-18T15:38:38.233Z,3.83
2023-01-18T15:41:11.304Z,4.30
2023-01-18T15:43:43.427Z,4.10
2023-01-18T15:46:14.144Z,5.07
2023-01-18T15:48:58.333Z,4.17
2023-01-18T15:51:41.781Z,4.23
2023-01-18T15:54:19.017Z,4.00
2023-01-18T15:56:54.763Z,4.23
2023-01-18T15:59:34.191Z,4.33
2023-01-18T16:02:16.827Z,4.80
2023-01-18T16:04:45.496Z,4.90
2023-01-18T16:07:36.948Z,4.67
2023-01-18T16:10:28.109Z,5.10
2023-01-18T16:13:34.732Z,4.70
2023-01-18T16:16:22.121Z,4.93
2023-01-18T16:19:04.221Z,5.10
2023-01-18T16:21:41.629Z,6.10
2023-01-18T16:24:28.273Z,7.20
2023-01-18T16:26:58.058Z,5.20
2023-01-18T16:29:27.903Z,5.40
2023-01-18T16:32:33.921Z,4.80
2023-01-18T16:35:06.103Z,5.20
2023-01-18T16:37:34.197Z,4.90
2023-01-18T16:40:02.393Z,4.97
2023-01-18T16:42:38.024Z,4.97
2023-01-18T16:45:15.023Z,5.13
2023-01-18T16:47:44.285Z,5.33
2023-01-18T16:50:15.591Z,5.00
2023-01-18T16:52:43.749Z,4.93
2023-01-18T16:55:13.641Z,5.03
2023-01-18T16:57:42.278Z,5.03
2023-01-18T17:00:18.054Z,4.53
2023-01-18T17:02:46.664Z,5.87
2023-01-18T17:05:20.914Z,5.37
2023-01-18T17:07:50.789Z,5.53
2023-01-18T17:10:32.324Z,5.20
2023-01-18T17:13:01.126Z,5.43
2023-01-18T17:15:33.310Z,5.13
2023-01-18T17:18:02.165Z,4.63
2023-01-18T17:20:32.242Z,5.07
2023-01-18T17:23:01.751Z,5.13
2023-01-18T17:25:30.124Z,5.63
2023-01-18T17:27:59.297Z,5.50
2023-01-18T17:30:27.970Z,5.50
2023-01-18T17:32:57.803Z,5.50
2023-01-18T17:35:27.745Z,5.70
2023-01-18T17:38:01.087Z,5.73
2023-01-18T17:40:40.905Z,5.40
2023-01-18T17:43:15.206Z,5.50
2023-01-18T17:45:51.285Z,5.47
2023-01-18T17:48:30.220Z,6.20
2023-01-18T17:50:58.769Z,5.10
2023-01-18T17:53:27.093Z,5.07
2023-01-18T17:55:55.575Z,4.47
2023-01-18T17:58:23.933Z,5.27
2023-01-18T18:00:52.210Z,5.77
2023-01-18T18:03:20.705Z,6.40
2023-01-18T18:05:50.436Z,6.20
2023-01-18T18:08:19.073Z,7.13
2023-01-18T18:10:47.751Z,6.40
2023-01-18T18:13:16.091Z,6.07
2023-01-18T18:15:46.763Z,6.60
2023-01-18T18:18:23.273Z,6.53
2023-01-18T18:20:58.279Z,6.90
2023-01-18T18:23:27.038Z,5.87
2023-01-18T18:25:55.846Z,6.43
2023-01-18T18:28:24.458Z,6.20
2023-01-18T18:30:53.088Z,7.27
2023-01-18T18:33:22.012Z,6.63
2023-01-18T18:35:51.062Z,6.10
2023-01-18T18:38:23.089Z,6.83
2023-01-18T18:40:52.072Z,7.00
2023-01-18T18:43:20.684Z,6.53
2023-01-18T18:45:48.903Z,6.30
2023-01-18T18:48:16.968Z,7.87
2023-01-18T18:50:46.673Z,8.17
2023-01-18T18:53:14.809Z,8.67
2023-01-18T18:55:44.593Z,6.70
2023-01-18T18:58:12.700Z,7.97
2023-01-18T19:00:40.782Z,6.33
2023-01-18T19:03:09.227Z,7.27
2023-01-18T19:05:37.736Z,6.87
2023-01-18T19:08:06.239Z,6.97
2023-01-18T19:10:34.343Z,5.57
2023-01-18T19:13:04.917Z,7.73
2023-01-18T19:15:33.100Z,7.50
2023-01-18T19:18:01.178Z,7.80
2023-01-18T19:20:29.549Z,8.20
2023-01-18T19:22:58.310Z,7.17
2023-01-18T19:25:26.695Z,8.17
2023-01-18T19:27:54.881Z,7.67
2023-01-18T19:30:24.661Z,8.43
2023-01-18T19:32:53.325Z,7.77
2023-01-18T19:35:21.866Z,8.27
2023-01-18T19:37:50.215Z,8.47
2023-01-18T19:40:18.759Z,7.87
2023-01-18T19:42:56.042Z,7.80
2023-01-18T19:45:28.995Z,8.80
2023-01-18T19:47:58.520Z,8.57
2023-01-18T19:50:27.574Z,7.87
2023-01-18T19:52:55.993Z,9.33
2023-01-18T19:55:25.137Z,9.00
2023-01-18T19:57:56.391Z,8.00
2023-01-18T20:00:25.925Z,8.93
2023-01-18T20:02:54.476Z,8.43
2023-01-18T20:05:22.603Z,7.80
2023-01-18T20:07:51.260Z,8.63
2023-01-18T20:10:20.372Z,9.47
2023-01-18T20:12:49.137Z,9.97
2023-01-18T20:15:18.975Z,9.47
2023-01-18T20:17:48.465Z,8.80
2023-01-18T20:20:24.150Z,8.00
2023-01-18T20:22:59.527Z,9.17
2023-01-18T20:25:27.723Z,6.67
2023-01-18T20:27:55.814Z,1.53
2023-01-18T20:30:23.852Z,0.43
2023-01-18T20:32:53.243Z,0.77
2023-01-18T20:35:21.321Z,0.50
2023-01-18T20:37:49.451Z,0.10
2023-01-18T20:40:17.939Z,0.37
2023-01-18T20:42:46.007Z,0.63
2023-01-18T20:45:14.120Z,0.10
2023-01-18T20:47:42.683Z,0.57
2023-01-18T20:50:12.953Z,0.87
2023-01-18T20:52:40.990Z,1.17
2023-01-18T20:55:12.819Z,0.83
2023-01-18T20:57:40.864Z,0.43
2023-01-18T21:00:12.554Z,0.73
2023-01-18T21:02:41.917Z,1.00
2023-01-18T21:05:10.388Z,0.20
2023-01-18T21:07:41.688Z,0.13
2023-01-18T21:10:11.764Z,0.20
2023-01-18T21:12:41.333Z,0.63
2023-01-18T21:15:10.216Z,0.40
2023-01-18T21:17:39.729Z,0.67
2023-01-18T21:20:08.888Z,0.40
2023-01-18T21:22:37.142Z,0.87
2023-01-18T21:25:07.810Z,0.37
2023-01-18T21:27:36.593Z,0.57
2023-01-18T21:30:05.331Z,0.73
2023-01-18T21:32:33.465Z,0.10
2023-01-18T21:35:01.601Z,0.80
2023-01-18T21:37:29.648Z,0.30
2023-01-18T21:39:58.303Z,0.30
2023-01-18T21:42:45.177Z,0.40
2023-01-18T21:45:31.045Z,0.77
2023-01-18T21:48:06.194Z,1.43
2023-01-18T21:50:51.480Z,0.60
2023-01-18T21:53:37.081Z,0.20
2023-01-18T21:56:05.506Z,1.10
2023-01-18T21:58:52.645Z,0.20
2023-01-18T22:01:22.435Z,0.70
2023-01-18T22:04:09.148Z,0.30
2023-01-18T22:06:37.441Z,0.77
2023-01-18T22:09:06.261Z,0.37
2023-01-18T22:11:34.430Z,0.30
2023-01-18T22:14:05.626Z,0.83
2023-01-18T22:16:34.119Z,0.60
2023-01-18T22:19:03.180Z,0.80
2023-01-18T22:21:31.224Z,0.43
2023-01-18T22:23:59.774Z,0.30
2023-01-18T22:26:29.872Z,0.53
2023-01-18T22:28:58.336Z,0.77
2023-01-18T22:31:28.624Z,0.30
2023-01-18T22:33:57.289Z,0.93
2023-01-18T22:36:25.770Z,0.23
2023-01-18T22:38:54.044Z,1.30
2023-01-18T22:41:24.296Z,0.60
2023-01-18T22:43:52.896Z,0.67
2023-01-18T22:46:22.421Z,1.30
2023-01-18T22:48:52.198Z,1.17
2023-01-18T22:51:22.568Z,1.17
2023-01-18T22:53:51.098Z,1.10
2023-01-18T22:56:22.103Z,0.70
2023-01-18T22:58:51.026Z,0.83
2023-01-18T23:01:25.017Z,0.73
2023-01-18T23:03:57.025Z,1.37
2023-01-18T23:06:25.111Z,0.80
2023-01-18T23:08:54.383Z,0.37
2023-01-18T23:11:24.324Z,0.93
2023-01-18T23:14:13.096Z,0.50
2023-01-18T23:16:59.363Z,0.57
2023-01-18T23:19:30.877Z,0.00
2023-01-18T23:21:59.276Z,0.30
2023-01-18T23:24:28.271Z,0.20
2023-01-18T23:26:56.310Z,1.07
2023-01-18T23:29:24.536Z,1.77
2023-01-18T23:31:52.599Z,1.23
2023-01-18T23:34:20.667Z,0.70
2023-01-18T23:36:51.056Z,1.43
2023-01-18T23:39:36.451Z,0.70
2023-01-18T23:42:22.138Z,0.23
2023-01-18T23:45:07.355Z,0.73
2023-01-18T23:47:53.632Z,0.30
2023-01-18T23:50:38.785Z,1.27
2023-01-18T23:53:30.222Z,1.20
2023-01-18T23:55:58.284Z,0.77
2023-01-18T23:58:26.378Z,0.20
